Monticello, Kentucky
Current Conditions -  °F | °C
As of 2:56 PM on Monday 22 Dec 2014 (Local Time) from KEKQ Reporting Station
Few Clouds Few Clouds  
Wind Chill: 57°   Ceiling: Unl
Heat Index: 57°   Visibility: 10mi
Dew Point: 46°   Wind: 14mph
Humidity: 67%   Direction: 160°SSE
Pressure: 29.83"   Gusts: 24mph
Location:  36.83°N, 84.85°W
Report Text: KEKQ 221956Z AUTO 16012G21KT 10SM FEW095 14/08 A2983 RMK AO2 T01380077 SLP105
Loading
Personal Weather Stations






























Interactive Weather Map New forecast layout! Learn more

10-Day Weather Forecast

Advertisements
Track Severe Weather on mobile